Westwood Rainier — C6SI3 — position and weather

sailwx.info

Track history (hours):
 
Tides and Currents Weather Stations Pressure Air Temp Water Temp Dewpoint Dewpoint Depression Visibility Wind Speed Wind Dir Waves Ship Positions

Westwood Rainier

Last reported at 2017-Mar-28 21:33 UTC. Time now 2017-Mar-28 21:51 UTC.
Position N 49°18' W 123°02'.

Type: Cargo ship. MMSI: 311348993.

Date/timePositionNaut miles runAvg speedWind from/ knotsBaromVisibWave heightAir tempDewpointWater temp
2017-Mar-28 21:33N 49°18' W 123°02'0 0.0
2017-Mar-28 20:33N 49°18' W 123°02'0 0.0
2017-Mar-28 19:33N 49°18' W 123°02'0 0.0
2017-Mar-28 18:33N 49°18' W 123°02'0 0.0
2017-Mar-28 17:33N 49°18' W 123°02'0 0.0
2017-Mar-28 16:33N 49°18' W 123°02'0 0.0
2017-Mar-28 15:33N 49°18' W 123°02'0 0.0
2017-Mar-28 14:33N 49°18' W 123°02'0 0.0
2017-Mar-28 13:33N 49°18' W 123°02'0 0.0
2017-Mar-28 12:33N 49°18' W 123°02'0 0.0
2017-Mar-28 11:33N 49°18' W 123°02'0 0.0
2017-Mar-28 10:33N 49°18' W 123°02'0 0.0
2017-Mar-28 09:30N 49°18' W 123°02'0 0.0
2017-Mar-28 08:33N 49°18' W 123°02'0 0.0
2017-Mar-28 07:33N 49°18' W 123°02'0 0.0
2017-Mar-28 06:33N 49°18' W 123°02'0 0.0
2017-Mar-28 05:33N 49°18' W 123°02'0 0.0
2017-Mar-28 04:33N 49°18' W 123°02'0 0.0
2017-Mar-28 03:33N 49°18' W 123°02'0 0.0
2017-Mar-28 02:33N 49°18' W 123°02'0 0.0
2017-Mar-28 01:33N 49°18' W 123°02'0 0.0
2017-Mar-28 00:33N 49°18' W 123°02'0 0.0
2017-Mar-27 23:33N 49°18' W 123°02'4 3.9
2017-Mar-27 22:33N 49°19' W 123°08'1212.2
2017-Mar-27 21:33N 49°09' W 123°20'1515.2
2017-Mar-27 20:33N 48°56' W 123°08'1211.5
2017-Mar-27 19:34N 48°45' W 123°06'1211.8
2017-Mar-27 18:34N 48°34' W 123°12'1212.1
2017-Mar-27 17:33N 48°22' W 123°18'1010.1
2017-Mar-27 16:33N 48°13' W 123°26'1110.8
2017-Mar-27 15:34N 48°12' W 123°10'1616.2
2017-Mar-27 14:33N 48°11' W 122°46'1616.6
2017-Mar-27 13:34N 47°57' W 122°32'1515.1
2017-Mar-27 12:34N 47°42' W 122°27'1514.8
2017-Mar-27 11:34N 47°28' W 122°24'1110.7
2017-Mar-27 10:33N 47°17' W 122°26'1 1.2
2017-Mar-27 09:30N 47°16' W 122°25'0 0.0
2017-Mar-27 07:24N 47°16' W 122°25'0 0.0
2017-Mar-27 05:06N 47°16' W 122°25'0 0.0
2017-Mar-27 01:30N 47°16' W 122°25'0 0.0
2017-Mar-27 00:33N 47°16' W 122°25'2 2.3
2017-Mar-26 23:33N 47°18' W 122°27'1211.8
2017-Mar-26 22:34N 47°30' W 122°26'1515.2
2017-Mar-26 21:34N 47°45' W 122°27'1514.8
2017-Mar-26 20:33N 47°58' W 122°36'1514.9
2017-Mar-26 19:32N 48°11' W 122°49'1313.8
2017-Mar-26 18:33N 48°11' W 123°09'1312.6
2017-Mar-26 17:33N 48°12' W 123°28'1312.7
2017-Mar-26 16:32N 48°13' W 123°47'1414.3
2017-Mar-26 15:34N 48°17' W 124°07'1413.8
2017-Mar-26 14:33N 48°23' W 124°26'1313.3
2017-Mar-26 13:34N 48°28' W 124°44'1313.0
2017-Mar-26 12:33N 48°25' W 125°03'1615.5
2017-Mar-26 11:33N 48°10' W 125°11'6715.4
2017-Mar-26 07:12N 47°03' W 125°05'1015.6
2017-Mar-26 06:33N 46°53' W 125°03'1514.7
2017-Mar-26 05:34N 46°41' W 124°50'1514.9
2017-Mar-26 04:34N 46°31' W 124°35'1615.5
2017-Mar-26 03:33N 46°19' W 124°20'1211.7
2017-Mar-26 02:33N 46°15' W 124°04'1312.7
2017-Mar-26 01:33N 46°13' W 123°46'1414.0
2017-Mar-26 00:34N 46°13' W 123°25'1212.3
2017-Mar-25 23:34N 46°11' W 123°08'7 7.0
2017-Mar-25 22:33N 46°08' W 122°59'0 0.0
2017-Mar-25 21:33N 46°08' W 122°59'0 0.0
2017-Mar-25 20:33N 46°08' W 122°59'0 0.0
2017-Mar-25 19:33N 46°08' W 122°59'0 0.0
2017-Mar-25 18:30N 46°08' W 122°59'0 0.0
2017-Mar-25 17:33N 46°08' W 122°59'0 0.0
2017-Mar-25 16:30N 46°08' W 122°59'0 0.0
2017-Mar-25 15:33N 46°08' W 122°59'0 0.0
2017-Mar-25 14:33N 46°08' W 122°59'0 0.0
2017-Mar-25 13:33N 46°08' W 122°59'0 0.0
2017-Mar-25 12:33N 46°08' W 122°59'0 0.0
2017-Mar-25 11:33N 46°08' W 122°59'0 0.0
2017-Mar-25 10:33N 46°08' W 122°59'0 0.0
2017-Mar-25 09:33N 46°08' W 122°59'0 0.0
2017-Mar-25 08:33N 46°08' W 122°59'0 0.0
2017-Mar-25 07:30N 46°08' W 122°59'0 0.0
2017-Mar-25 06:33N 46°08' W 122°59'0 0.0
2017-Mar-25 05:33N 46°08' W 122°59'0 0.0
2017-Mar-25 04:33N 46°08' W 122°59'0 0.0
2017-Mar-25 03:33N 46°08' W 122°59'0 0.0
2017-Mar-25 02:33N 46°08' W 122°59'0 0.0
2017-Mar-25 01:33N 46°08' W 122°59'0 0.0
2017-Mar-25 00:33N 46°08' W 122°59'0 0.0
2017-Mar-24 23:33N 46°08' W 122°59'0 0.0
2017-Mar-24 22:33N 46°08' W 122°59'0 0.0
2017-Mar-24 21:33N 46°08' W 122°59'0 0.0
2017-Mar-24 20:30N 46°08' W 122°59'0 0.0
2017-Mar-24 19:33N 46°08' W 122°59'0 0.0
2017-Mar-24 18:30N 46°08' W 122°59'0 0.0
2017-Mar-24 17:33N 46°08' W 122°59'0 0.0
2017-Mar-24 16:33N 46°08' W 122°59'0 0.0
2017-Mar-24 15:33N 46°08' W 122°59'0 0.0
2017-Mar-24 14:30N 46°08' W 122°59'0 0.0
2017-Mar-24 13:33N 46°08' W 122°59'0 0.0
2017-Mar-24 12:33N 46°08' W 122°59'0 0.0
2017-Mar-24 11:33N 46°08' W 122°59'0 0.0
2017-Mar-24 10:33N 46°08' W 122°59'0 0.0
2017-Mar-24 09:33N 46°08' W 122°59'0 0.0
2017-Mar-24 08:33N 46°08' W 122°59'0 0.0
2017-Mar-24 07:33N 46°08' W 122°59'0 0.0
2017-Mar-24 06:33N 46°08' W 122°59'0 0.0
2017-Mar-24 05:32N 46°08' W 122°59'0 0.0
2017-Mar-24 04:29N 46°08' W 122°59'0 0.0
2017-Mar-24 03:32N 46°08' W 122°59'0 0.0
2017-Mar-24 02:32N 46°08' W 122°59'0 0.0
2017-Mar-24 01:32N 46°08' W 122°59'0 0.0
2017-Mar-24 00:32N 46°08' W 122°59'0 0.0
2017-Mar-23 23:32N 46°08' W 122°59'0 0.0
2017-Mar-23 22:32N 46°08' W 122°59'0 0.0
2017-Mar-23 21:29N 46°08' W 122°59'0 0.0
2017-Mar-23 20:32N 46°08' W 122°59'0 0.0
2017-Mar-23 19:32N 46°08' W 122°59'0 0.0
2017-Mar-23 18:32N 46°08' W 122°59'0 0.0
2017-Mar-23 17:29N 46°08' W 122°59'0 0.0
2017-Mar-23 16:32N 46°08' W 122°59'0 0.0
2017-Mar-23 15:32N 46°08' W 122°59'0 0.0
2017-Mar-23 14:32N 46°08' W 122°59'0 0.0
2017-Mar-23 13:29N 46°08' W 122°59'0 0.0
2017-Mar-23 12:29N 46°08' W 122°59'0 0.0
2017-Mar-23 11:32N 46°08' W 122°59'0 0.0
2017-Mar-23 10:32N 46°08' W 122°59'0 0.0
2017-Mar-23 09:32N 46°08' W 122°59'0 0.0
2017-Mar-23 08:29N 46°08' W 122°59'0 0.0
2017-Mar-23 07:32N 46°08' W 122°59'0 0.0
2017-Mar-23 06:29N 46°08' W 122°59'0 0.0
2017-Mar-23 05:29N 46°08' W 122°59'0 0.0
2017-Mar-23 04:32N 46°08' W 122°59'0 0.0
2017-Mar-23 03:32N 46°08' W 122°59'0 0.0
2017-Mar-23 02:29N 46°08' W 122°59'0 0.0
2017-Mar-23 01:32N 46°08' W 122°59'0 0.0
2017-Mar-23 00:32N 46°08' W 122°59'0 0.0
2017-Mar-22 23:32N 46°08' W 122°59'0 0.0
2017-Mar-22 22:32N 46°08' W 122°59'0 0.0
2017-Mar-22 21:32N 46°08' W 122°59'0 0.0
2017-Mar-22 20:32N 46°08' W 122°59'0 0.0
2017-Mar-22 19:32N 46°08' W 122°59'0 0.0
2017-Mar-22 18:32N 46°08' W 122°59'0 0.0
2017-Mar-22 17:32N 46°08' W 122°59'0 0.0
2017-Mar-22 16:32N 46°08' W 122°59'0 0.0
2017-Mar-22 15:32N 46°08' W 122°59'0 0.0
2017-Mar-22 14:32N 46°08' W 122°59'0 0.0
2017-Mar-22 13:32N 46°08' W 122°59'0 0.0
2017-Mar-22 12:32N 46°08' W 122°59'0 0.0
2017-Mar-22 11:29N 46°08' W 122°59'0 0.1
2017-Mar-22 10:33N 46°08' W 122°59'7 7.2
2017-Mar-22 09:33N 46°11' W 123°08'1110.7
2017-Mar-22 08:34N 46°09' W 123°23'9 9.0
2017-Mar-22 07:33N 46°16' W 123°32'1211.8
2017-Mar-22 06:33N 46°12' W 123°49'1010.2
2017-Mar-22 05:33N 46°15' W 124°03'10 9.7
2017-Mar-22 04:33N 46°14' W 124°16'1313.1
2017-Mar-22 03:33N 46°26' W 124°26'1414.4
2017-Mar-22 02:33N 46°37' W 124°38'1514.8
2017-Mar-22 01:34N 46°50' W 124°48'1514.9
2017-Mar-22 00:33N 47°04' W 124°57'6014.5
2017-Mar-21 20:25N 48°03' W 125°16'1213.9
2017-Mar-21 19:33N 48°15' W 125°13'1514.4
2017-Mar-21 18:33N 48°28' W 125°04'1515.1
2017-Mar-21 17:33N 48°30' W 124°42'1616.1
2017-Mar-21 16:33N 48°24' W 124°19'1615.7
2017-Mar-21 15:33N 48°18' W 123°57'1615.7
2017-Mar-21 14:32N 48°15' W 123°34'1212.2
2017-Mar-21 13:33N 48°23' W 123°20'1312.9
2017-Mar-21 12:33N 48°35' W 123°14'1313.3
2017-Mar-21 11:33N 48°46' W 123°02'1414.5
2017-Mar-21 10:33N 48°58' W 123°15'1414.1
2017-Mar-21 09:33N 49°12' W 123°22'1211.6
2017-Mar-21 08:34N 49°18' W 123°07'3 3.4
2017-Mar-21 07:33N 49°18' W 123°02'0 0.0
2017-Mar-21 06:33N 49°18' W 123°02'0 0.0
2017-Mar-21 05:33N 49°18' W 123°02'0 0.0
2017-Mar-21 04:33N 49°18' W 123°02'0 0.0
2017-Mar-21 03:33N 49°18' W 123°02'0 0.0
2017-Mar-21 02:33N 49°18' W 123°02'0 0.0
2017-Mar-21 01:33N 49°18' W 123°02'0 0.0
2017-Mar-21 00:33N 49°18' W 123°02'0 0.0
2017-Mar-20 23:33N 49°18' W 123°02'0 0.0
2017-Mar-20 22:33N 49°18' W 123°02'0 0.0
2017-Mar-20 21:33N 49°18' W 123°02'0 0.0
2017-Mar-20 20:33N 49°18' W 123°02'0 0.0
2017-Mar-20 19:33N 49°18' W 123°02'0 0.0
2017-Mar-20 18:33N 49°18' W 123°02'0 0.0
2017-Mar-20 17:33N 49°18' W 123°02'0 0.0
2017-Mar-20 16:33N 49°18' W 123°02'0 0.0
2017-Mar-20 15:33N 49°18' W 123°02'0 0.0
2017-Mar-20 14:33N 49°18' W 123°02'0 0.0
2017-Mar-20 13:33N 49°18' W 123°02'0 0.0
2017-Mar-20 12:33N 49°18' W 123°02'0 0.0
2017-Mar-20 11:33N 49°18' W 123°02'0 0.0
2017-Mar-20 10:33N 49°18' W 123°02'0 0.0
2017-Mar-20 09:33N 49°18' W 123°02'0 0.0
2017-Mar-20 08:33N 49°18' W 123°02'0 0.0
2017-Mar-20 07:33N 49°18' W 123°02'0 0.0
2017-Mar-20 06:33N 49°18' W 123°02'0 0.0
2017-Mar-20 05:33N 49°18' W 123°02'0 0.0
2017-Mar-20 04:33N 49°18' W 123°02'0 0.0
2017-Mar-20 03:33N 49°18' W 123°02'0 0.0
2017-Mar-20 02:33N 49°18' W 123°02'0 0.0
2017-Mar-20 01:33N 49°18' W 123°02'0 0.0
2017-Mar-20 00:33N 49°18' W 123°02'0 0.0
2017-Mar-19 23:33N 49°18' W 123°02'0 0.0
2017-Mar-19 22:33N 49°18' W 123°02'0 0.0
2017-Mar-19 21:33N 49°18' W 123°02'0 0.0
2017-Mar-19 20:33N 49°18' W 123°02'0 0.0
2017-Mar-19 19:33N 49°18' W 123°02'0 0.0
2017-Mar-19 18:33N 49°18' W 123°02'0 0.0
2017-Mar-19 17:33N 49°18' W 123°02'0 0.0
2017-Mar-19 16:33N 49°18' W 123°02'0 0.0
2017-Mar-19 15:33N 49°18' W 123°02'0 0.0
2017-Mar-19 14:33N 49°18' W 123°02'0 0.0
2017-Mar-19 13:33N 49°18' W 123°02'0 0.0
2017-Mar-19 12:33N 49°18' W 123°02'0 0.0
2017-Mar-19 11:33N 49°18' W 123°02'0 0.0
2017-Mar-19 10:33N 49°18' W 123°02'0 0.0
2017-Mar-19 09:33N 49°18' W 123°02'0 0.0
2017-Mar-19 08:33N 49°18' W 123°02'0 0.0
2017-Mar-19 07:33N 49°18' W 123°02'0 0.0
2017-Mar-19 06:33N 49°18' W 123°02'0 0.0
2017-Mar-19 05:33N 49°18' W 123°02'0 0.0
2017-Mar-19 04:33N 49°18' W 123°02'0 0.0
2017-Mar-19 03:33N 49°18' W 123°02'0 0.0
2017-Mar-19 02:33N 49°18' W 123°02'0 0.0
2017-Mar-19 01:33N 49°18' W 123°02'0 0.0
2017-Mar-19 00:33N 49°18' W 123°02'0 0.0
2017-Mar-18 23:33N 49°18' W 123°02'0 0.0
2017-Mar-18 22:33N 49°18' W 123°02'0 0.0
2017-Mar-18 21:33N 49°18' W 123°02'  
Track history (hours):
 
Tides and Currents Weather Stations Pressure Air Temp Water Temp Dewpoint Dewpoint Depression Visibility Wind Speed Wind Dir Waves Ship Positions

Westwood Rainier

Last reported at 2017-Mar-28 21:33 UTC. Time now 2017-Mar-28 21:51 UTC.
Position N 49°18' W 123°02'.

Type: Cargo ship. MMSI: 311348993.

Date/timePositionNaut miles runAvg speedWind from/ knotsBaromVisibWave heightAir tempDewpointWater temp
2017-Mar-28 21:33N 49°18' W 123°02'0 0.0
2017-Mar-28 20:33N 49°18' W 123°02'0 0.0
2017-Mar-28 19:33N 49°18' W 123°02'0 0.0
2017-Mar-28 18:33N 49°18' W 123°02'0 0.0
2017-Mar-28 17:33N 49°18' W 123°02'0 0.0
2017-Mar-28 16:33N 49°18' W 123°02'0 0.0
2017-Mar-28 15:33N 49°18' W 123°02'0 0.0
2017-Mar-28 14:33N 49°18' W 123°02'0 0.0
2017-Mar-28 13:33N 49°18' W 123°02'0 0.0
2017-Mar-28 12:33N 49°18' W 123°02'0 0.0
2017-Mar-28 11:33N 49°18' W 123°02'0 0.0
2017-Mar-28 10:33N 49°18' W 123°02'0 0.0
2017-Mar-28 09:30N 49°18' W 123°02'0 0.0
2017-Mar-28 08:33N 49°18' W 123°02'0 0.0
2017-Mar-28 07:33N 49°18' W 123°02'0 0.0
2017-Mar-28 06:33N 49°18' W 123°02'0 0.0
2017-Mar-28 05:33N 49°18' W 123°02'0 0.0
2017-Mar-28 04:33N 49°18' W 123°02'0 0.0
2017-Mar-28 03:33N 49°18' W 123°02'0 0.0
2017-Mar-28 02:33N 49°18' W 123°02'0 0.0
2017-Mar-28 01:33N 49°18' W 123°02'0 0.0
2017-Mar-28 00:33N 49°18' W 123°02'0 0.0
2017-Mar-27 23:33N 49°18' W 123°02'4 3.9
2017-Mar-27 22:33N 49°19' W 123°08'1212.2
2017-Mar-27 21:33N 49°09' W 123°20'1515.2
2017-Mar-27 20:33N 48°56' W 123°08'1211.5
2017-Mar-27 19:34N 48°45' W 123°06'1211.8
2017-Mar-27 18:34N 48°34' W 123°12'1212.1
2017-Mar-27 17:33N 48°22' W 123°18'1010.1
2017-Mar-27 16:33N 48°13' W 123°26'1110.8
2017-Mar-27 15:34N 48°12' W 123°10'1616.2
2017-Mar-27 14:33N 48°11' W 122°46'1616.6
2017-Mar-27 13:34N 47°57' W 122°32'1515.1
2017-Mar-27 12:34N 47°42' W 122°27'1514.8
2017-Mar-27 11:34N 47°28' W 122°24'1110.7
2017-Mar-27 10:33N 47°17' W 122°26'1 1.2
2017-Mar-27 09:30N 47°16' W 122°25'0 0.0
2017-Mar-27 07:24N 47°16' W 122°25'0 0.0
2017-Mar-27 05:06N 47°16' W 122°25'0 0.0
2017-Mar-27 01:30N 47°16' W 122°25'0 0.0
2017-Mar-27 00:33N 47°16' W 122°25'2 2.3
2017-Mar-26 23:33N 47°18' W 122°27'1211.8
2017-Mar-26 22:34N 47°30' W 122°26'1515.2
2017-Mar-26 21:34N 47°45' W 122°27'1514.8
2017-Mar-26 20:33N 47°58' W 122°36'1514.9
2017-Mar-26 19:32N 48°11' W 122°49'1313.8
2017-Mar-26 18:33N 48°11' W 123°09'1312.6
2017-Mar-26 17:33N 48°12' W 123°28'1312.7
2017-Mar-26 16:32N 48°13' W 123°47'1414.3
2017-Mar-26 15:34N 48°17' W 124°07'1413.8
2017-Mar-26 14:33N 48°23' W 124°26'1313.3
2017-Mar-26 13:34N 48°28' W 124°44'1313.0
2017-Mar-26 12:33N 48°25' W 125°03'1615.5
2017-Mar-26 11:33N 48°10' W 125°11'6715.4
2017-Mar-26 07:12N 47°03' W 125°05'1015.6
2017-Mar-26 06:33N 46°53' W 125°03'1514.7
2017-Mar-26 05:34N 46°41' W 124°50'1514.9
2017-Mar-26 04:34N 46°31' W 124°35'1615.5
2017-Mar-26 03:33N 46°19' W 124°20'1211.7
2017-Mar-26 02:33N 46°15' W 124°04'1312.7
2017-Mar-26 01:33N 46°13' W 123°46'1414.0
2017-Mar-26 00:34N 46°13' W 123°25'1212.3
2017-Mar-25 23:34N 46°11' W 123°08'7 7.0
2017-Mar-25 22:33N 46°08' W 122°59'0 0.0
2017-Mar-25 21:33N 46°08' W 122°59'0 0.0
2017-Mar-25 20:33N 46°08' W 122°59'0 0.0
2017-Mar-25 19:33N 46°08' W 122°59'0 0.0
2017-Mar-25 18:30N 46°08' W 122°59'0 0.0
2017-Mar-25 17:33N 46°08' W 122°59'0 0.0
2017-Mar-25 16:30N 46°08' W 122°59'0 0.0
2017-Mar-25 15:33N 46°08' W 122°59'0 0.0
2017-Mar-25 14:33N 46°08' W 122°59'0 0.0
2017-Mar-25 13:33N 46°08' W 122°59'0 0.0
2017-Mar-25 12:33N 46°08' W 122°59'0 0.0
2017-Mar-25 11:33N 46°08' W 122°59'0 0.0
2017-Mar-25 10:33N 46°08' W 122°59'0 0.0
2017-Mar-25 09:33N 46°08' W 122°59'0 0.0
2017-Mar-25 08:33N 46°08' W 122°59'0 0.0
2017-Mar-25 07:30N 46°08' W 122°59'0 0.0
2017-Mar-25 06:33N 46°08' W 122°59'0 0.0
2017-Mar-25 05:33N 46°08' W 122°59'0 0.0
2017-Mar-25 04:33N 46°08' W 122°59'0 0.0
2017-Mar-25 03:33N 46°08' W 122°59'0 0.0
2017-Mar-25 02:33N 46°08' W 122°59'0 0.0
2017-Mar-25 01:33N 46°08' W 122°59'0 0.0
2017-Mar-25 00:33N 46°08' W 122°59'0 0.0
2017-Mar-24 23:33N 46°08' W 122°59'0 0.0
2017-Mar-24 22:33N 46°08' W 122°59'0 0.0
2017-Mar-24 21:33N 46°08' W 122°59'0 0.0
2017-Mar-24 20:30N 46°08' W 122°59'0 0.0
2017-Mar-24 19:33N 46°08' W 122°59'0 0.0
2017-Mar-24 18:30N 46°08' W 122°59'0 0.0
2017-Mar-24 17:33N 46°08' W 122°59'0 0.0
2017-Mar-24 16:33N 46°08' W 122°59'0 0.0
2017-Mar-24 15:33N 46°08' W 122°59'0 0.0
2017-Mar-24 14:30N 46°08' W 122°59'0 0.0
2017-Mar-24 13:33N 46°08' W 122°59'0 0.0
2017-Mar-24 12:33N 46°08' W 122°59'0 0.0
2017-Mar-24 11:33N 46°08' W 122°59'0 0.0
2017-Mar-24 10:33N 46°08' W 122°59'0 0.0
2017-Mar-24 09:33N 46°08' W 122°59'0 0.0
2017-Mar-24 08:33N 46°08' W 122°59'0 0.0
2017-Mar-24 07:33N 46°08' W 122°59'0 0.0
2017-Mar-24 06:33N 46°08' W 122°59'0 0.0
2017-Mar-24 05:32N 46°08' W 122°59'0 0.0
2017-Mar-24 04:29N 46°08' W 122°59'0 0.0
2017-Mar-24 03:32N 46°08' W 122°59'0 0.0
2017-Mar-24 02:32N 46°08' W 122°59'0 0.0
2017-Mar-24 01:32N 46°08' W 122°59'0 0.0
2017-Mar-24 00:32N 46°08' W 122°59'0 0.0
2017-Mar-23 23:32N 46°08' W 122°59'0 0.0
2017-Mar-23 22:32N 46°08' W 122°59'0 0.0
2017-Mar-23 21:29N 46°08' W 122°59'0 0.0
2017-Mar-23 20:32N 46°08' W 122°59'0 0.0
2017-Mar-23 19:32N 46°08' W 122°59'0 0.0
2017-Mar-23 18:32N 46°08' W 122°59'0 0.0
2017-Mar-23 17:29N 46°08' W 122°59'0 0.0
2017-Mar-23 16:32N 46°08' W 122°59'0 0.0
2017-Mar-23 15:32N 46°08' W 122°59'0 0.0
2017-Mar-23 14:32N 46°08' W 122°59'0 0.0
2017-Mar-23 13:29N 46°08' W 122°59'0 0.0
2017-Mar-23 12:29N 46°08' W 122°59'0 0.0
2017-Mar-23 11:32N 46°08' W 122°59'0 0.0
2017-Mar-23 10:32N 46°08' W 122°59'0 0.0
2017-Mar-23 09:32N 46°08' W 122°59'0 0.0
2017-Mar-23 08:29N 46°08' W 122°59'0 0.0
2017-Mar-23 07:32N 46°08' W 122°59'0 0.0
2017-Mar-23 06:29N 46°08' W 122°59'0 0.0
2017-Mar-23 05:29N 46°08' W 122°59'0 0.0
2017-Mar-23 04:32N 46°08' W 122°59'0 0.0
2017-Mar-23 03:32N 46°08' W 122°59'0 0.0
2017-Mar-23 02:29N 46°08' W 122°59'0 0.0
2017-Mar-23 01:32N 46°08' W 122°59'0 0.0
2017-Mar-23 00:32N 46°08' W 122°59'0 0.0
2017-Mar-22 23:32N 46°08' W 122°59'0 0.0
2017-Mar-22 22:32N 46°08' W 122°59'0 0.0
2017-Mar-22 21:32N 46°08' W 122°59'0 0.0
2017-Mar-22 20:32N 46°08' W 122°59'0 0.0
2017-Mar-22 19:32N 46°08' W 122°59'0 0.0
2017-Mar-22 18:32N 46°08' W 122°59'0 0.0
2017-Mar-22 17:32N 46°08' W 122°59'0 0.0
2017-Mar-22 16:32N 46°08' W 122°59'0 0.0
2017-Mar-22 15:32N 46°08' W 122°59'0 0.0
2017-Mar-22 14:32N 46°08' W 122°59'0 0.0
2017-Mar-22 13:32N 46°08' W 122°59'0 0.0
2017-Mar-22 12:32N 46°08' W 122°59'0 0.0
2017-Mar-22 11:29N 46°08' W 122°59'0 0.1
2017-Mar-22 10:33N 46°08' W 122°59'7 7.2
2017-Mar-22 09:33N 46°11' W 123°08'1110.7
2017-Mar-22 08:34N 46°09' W 123°23'9 9.0
2017-Mar-22 07:33N 46°16' W 123°32'1211.8
2017-Mar-22 06:33N 46°12' W 123°49'1010.2
2017-Mar-22 05:33N 46°15' W 124°03'10 9.7
2017-Mar-22 04:33N 46°14' W 124°16'1313.1
2017-Mar-22 03:33N 46°26' W 124°26'1414.4
2017-Mar-22 02:33N 46°37' W 124°38'1514.8
2017-Mar-22 01:34N 46°50' W 124°48'1514.9
2017-Mar-22 00:33N 47°04' W 124°57'6014.5
2017-Mar-21 20:25N 48°03' W 125°16'1213.9
2017-Mar-21 19:33N 48°15' W 125°13'1514.4
2017-Mar-21 18:33N 48°28' W 125°04'1515.1
2017-Mar-21 17:33N 48°30' W 124°42'1616.1
2017-Mar-21 16:33N 48°24' W 124°19'1615.7
2017-Mar-21 15:33N 48°18' W 123°57'1615.7
2017-Mar-21 14:32N 48°15' W 123°34'1212.2
2017-Mar-21 13:33N 48°23' W 123°20'1312.9
2017-Mar-21 12:33N 48°35' W 123°14'1313.3
2017-Mar-21 11:33N 48°46' W 123°02'1414.5
2017-Mar-21 10:33N 48°58' W 123°15'1414.1
2017-Mar-21 09:33N 49°12' W 123°22'1211.6
2017-Mar-21 08:34N 49°18' W 123°07'3 3.4
2017-Mar-21 07:33N 49°18' W 123°02'0 0.0
2017-Mar-21 06:33N 49°18' W 123°02'0 0.0
2017-Mar-21 05:33N 49°18' W 123°02'0 0.0
2017-Mar-21 04:33N 49°18' W 123°02'0 0.0
2017-Mar-21 03:33N 49°18' W 123°02'0 0.0
2017-Mar-21 02:33N 49°18' W 123°02'0 0.0
2017-Mar-21 01:33N 49°18' W 123°02'0 0.0
2017-Mar-21 00:33N 49°18' W 123°02'0 0.0
2017-Mar-20 23:33N 49°18' W 123°02'0 0.0
2017-Mar-20 22:33N 49°18' W 123°02'0 0.0
2017-Mar-20 21:33N 49°18' W 123°02'0 0.0
2017-Mar-20 20:33N 49°18' W 123°02'0 0.0
2017-Mar-20 19:33N 49°18' W 123°02'0 0.0
2017-Mar-20 18:33N 49°18' W 123°02'0 0.0
2017-Mar-20 17:33N 49°18' W 123°02'0 0.0
2017-Mar-20 16:33N 49°18' W 123°02'0 0.0
2017-Mar-20 15:33N 49°18' W 123°02'0 0.0
2017-Mar-20 14:33N 49°18' W 123°02'0 0.0
2017-Mar-20 13:33N 49°18' W 123°02'0 0.0
2017-Mar-20 12:33N 49°18' W 123°02'0 0.0
2017-Mar-20 11:33N 49°18' W 123°02'0 0.0
2017-Mar-20 10:33N 49°18' W 123°02'0 0.0
2017-Mar-20 09:33N 49°18' W 123°02'0 0.0
2017-Mar-20 08:33N 49°18' W 123°02'0 0.0
2017-Mar-20 07:33N 49°18' W 123°02'0 0.0
2017-Mar-20 06:33N 49°18' W 123°02'0 0.0
2017-Mar-20 05:33N 49°18' W 123°02'0 0.0
2017-Mar-20 04:33N 49°18' W 123°02'0 0.0
2017-Mar-20 03:33N 49°18' W 123°02'0 0.0
2017-Mar-20 02:33N 49°18' W 123°02'0 0.0
2017-Mar-20 01:33N 49°18' W 123°02'0 0.0
2017-Mar-20 00:33N 49°18' W 123°02'0 0.0
2017-Mar-19 23:33N 49°18' W 123°02'0 0.0
2017-Mar-19 22:33N 49°18' W 123°02'0 0.0
2017-Mar-19 21:33N 49°18' W 123°02'0 0.0
2017-Mar-19 20:33N 49°18' W 123°02'0 0.0
2017-Mar-19 19:33N 49°18' W 123°02'0 0.0
2017-Mar-19 18:33N 49°18' W 123°02'0 0.0
2017-Mar-19 17:33N 49°18' W 123°02'0 0.0
2017-Mar-19 16:33N 49°18' W 123°02'0 0.0
2017-Mar-19 15:33N 49°18' W 123°02'0 0.0
2017-Mar-19 14:33N 49°18' W 123°02'0 0.0
2017-Mar-19 13:33N 49°18' W 123°02'0 0.0
2017-Mar-19 12:33N 49°18' W 123°02'0 0.0
2017-Mar-19 11:33N 49°18' W 123°02'0 0.0
2017-Mar-19 10:33N 49°18' W 123°02'0 0.0
2017-Mar-19 09:33N 49°18' W 123°02'0 0.0
2017-Mar-19 08:33N 49°18' W 123°02'0 0.0
2017-Mar-19 07:33N 49°18' W 123°02'0 0.0
2017-Mar-19 06:33N 49°18' W 123°02'0 0.0
2017-Mar-19 05:33N 49°18' W 123°02'0 0.0
2017-Mar-19 04:33N 49°18' W 123°02'0 0.0
2017-Mar-19 03:33N 49°18' W 123°02'0 0.0
2017-Mar-19 02:33N 49°18' W 123°02'0 0.0
2017-Mar-19 01:33N 49°18' W 123°02'0 0.0
2017-Mar-19 00:33N 49°18' W 123°02'0 0.0
2017-Mar-18 23:33N 49°18' W 123°02'0 0.0
2017-Mar-18 22:33N 49°18' W 123°02'0 0.0
2017-Mar-18 21:33N 49°18' W 123°02'  

Dump ship's entire track history